.
WxDataArchive / Data Records for 2010-01-20
2010-01-19 January 2010 2010-01-21

Data Records for Wednesday, 20 January 2010

Time	Temp	Chill	HIndex	Humid	Dewpt	 Wind 	HiWind	WindDir	Rain 	Barom 
-----	----	-----	------	-----	-----	------	------	-------	-----	----- 
00:00	28.4	28.4	28.4	81	23.3	0	0	---	0.00	30.034 
00:05	28.7	28.7	28.7	80	23.3	0	1	292	0.00	30.034 
00:10	28.8	28.8	28.8	80	23.4	0	1	292	0.00	30.034 
00:15	28.8	28.8	28.8	80	23.4	0	1	292	0.00	30.038 
00:20	29.0	29.0	29.0	79	23.3	0	1	292	0.00	30.038 
00:25	29.1	29.1	29.1	79	23.4	0	1	292	0.00	30.038 
00:30	29.1	29.1	29.1	79	23.4	0	1	292	0.00	30.035 
00:35	29.3	29.3	29.3	79	23.6	0	0	---	0.00	30.035 
00:40	29.3	29.3	29.3	79	23.6	0	0	---	0.00	30.035 
00:45	29.3	29.3	29.3	79	23.6	0	0	---	0.00	30.029 
00:50	29.3	29.3	29.3	79	23.6	0	0	---	0.00	30.029 
00:55	29.3	29.3	29.3	79	23.6	0	0	---	0.00	30.029 
01:00	29.4	29.4	29.4	79	23.7	0	1	292	0.00	30.031 
01:05	29.4	29.4	29.4	78	23.4	0	0	---	0.00	30.031 
01:10	29.4	29.4	29.4	79	23.7	0	0	---	0.00	30.031 
01:15	29.4	29.4	29.4	78	23.4	0	0	---	0.00	30.027 
01:20	29.4	29.4	29.4	79	23.7	0	0	---	0.00	30.027 
01:25	29.4	29.4	29.4	79	23.7	0	0	---	0.00	30.027 
01:30	29.4	29.4	29.4	79	23.7	0	0	---	0.00	30.028 
01:35	29.4	29.4	29.4	79	23.7	0	0	---	0.00	30.028 
01:40	29.4	29.4	29.4	79	23.7	0	0	---	0.00	30.028 
01:45	29.4	29.4	29.4	79	23.7	0	1	292	0.00	30.029 
01:50	29.4	29.4	29.4	78	23.4	0	0	---	0.00	30.029 
01:55	29.5	29.5	29.5	78	23.5	0	0	---	0.00	30.029 
02:00	29.4	29.4	29.4	78	23.4	0	0	---	0.00	30.026 
02:05	29.4	29.4	29.4	78	23.4	0	0	---	0.00	30.026 
02:10	29.4	29.4	29.4	77	23.1	0	0	---	0.00	30.026 
02:15	29.3	29.3	29.3	77	23.0	0	0	---	0.00	30.028 
02:20	29.3	29.3	29.3	76	22.7	0	1	292	0.00	30.028 
02:25	29.3	29.3	29.3	76	22.7	0	0	---	0.00	30.028 
02:30	29.1	29.1	29.1	75	22.2	0	1	292	0.00	30.031 
02:35	29.0	29.0	29.0	75	22.1	0	0	---	0.00	30.031 
02:40	28.8	28.8	28.8	74	21.6	0	0	---	0.00	30.031 
02:45	28.5	28.5	28.5	75	21.6	0	0	---	0.00	30.036 
02:50	28.4	28.4	28.4	75	21.5	0	2	292	0.00	30.036 
02:55	28.2	28.2	28.2	75	21.3	0	1	292	0.00	30.036 
03:00	28.2	28.2	28.2	74	21.0	0	1	292	0.00	30.036 
03:05	28.2	28.2	28.2	74	21.0	0	0	---	0.00	30.036 
03:10	28.1	28.1	28.1	74	20.9	0	0	---	0.00	30.036 
03:15	27.9	27.9	27.9	74	20.7	0	0	---	0.00	30.033 
03:20	27.8	27.8	27.8	75	20.9	0	0	---	0.00	30.033 
03:25	27.5	27.5	27.5	75	20.6	0	0	---	0.00	30.033 
03:30	27.2	27.2	27.2	75	20.3	0	0	---	0.00	30.034 
03:35	27.0	27.0	27.0	76	20.5	0	0	---	0.00	30.034 
03:40	26.6	26.6	26.6	76	20.1	0	0	---	0.00	30.034 
03:45	26.3	26.3	26.3	77	20.1	0	0	---	0.00	30.035 
03:50	26.0	26.0	26.0	77	19.8	0	0	---	0.00	30.035 
03:55	25.6	25.6	25.6	77	19.4	0	0	---	0.00	30.035 
04:00	25.1	25.1	25.1	79	19.5	0	0	---	0.00	30.040 
04:05	24.8	24.8	24.8	79	19.2	0	0	---	0.00	30.040 
04:10	24.5	24.5	24.5	80	19.2	0	0	---	0.00	30.040 
04:15	24.4	24.4	24.4	81	19.4	0	0	---	0.00	30.046 
04:20	24.1	24.1	24.1	81	19.1	0	0	---	0.00	30.046 
04:25	23.9	23.9	23.9	82	19.2	0	0	---	0.00	30.046 
04:30	23.8	23.8	23.8	82	19.1	0	0	---	0.00	30.046 
04:35	23.5	23.5	23.5	82	18.8	0	0	---	0.00	30.046 
04:40	23.2	23.2	23.2	83	18.8	0	0	---	0.00	30.046 
04:45	22.9	22.9	22.9	83	18.5	0	0	---	0.00	30.050 
04:50	22.7	22.7	22.7	84	18.6	0	0	---	0.00	30.050 
04:55	22.5	22.5	22.5	84	18.4	0	0	---	0.00	30.050 
05:00	22.4	22.4	22.4	84	18.3	0	0	---	0.00	30.052 
05:05	22.2	22.2	22.2	84	18.1	0	0	---	0.00	30.052 
05:10	22.2	22.2	22.2	85	18.4	0	0	---	0.00	30.052 
05:15	22.1	22.1	22.1	85	18.3	0	0	---	0.00	30.065 
05:20	21.9	21.9	21.9	85	18.1	0	0	---	0.00	30.065 
05:25	21.8	21.8	21.8	85	18.0	0	0	---	0.00	30.065 
05:30	21.6	21.6	21.6	85	17.8	0	0	---	0.00	30.065 
05:35	21.3	21.3	21.3	85	17.5	0	0	---	0.00	30.065 
05:40	21.1	21.1	21.1	85	17.3	0	0	---	0.00	30.065 
05:45	21.0	21.0	21.0	86	17.5	0	0	---	0.00	30.067 
05:50	20.8	20.8	20.8	86	17.3	0	0	---	0.00	30.067 
05:55	20.6	20.6	20.6	86	17.1	0	0	---	0.00	30.067 
06:00	20.5	20.5	20.5	86	17.0	0	0	---	0.00	30.065 
06:05	20.3	20.3	20.3	86	16.8	0	0	---	0.00	30.065 
06:10	20.2	20.2	20.2	86	16.7	0	0	---	0.00	30.065 
06:15	20.0	20.0	20.0	86	16.5	0	0	---	0.00	30.053 
06:20	19.9	19.9	19.9	87	16.7	0	0	---	0.00	30.053 
06:25	19.9	19.9	19.9	87	16.7	0	0	---	0.00	30.053 
06:30	19.9	19.9	19.9	87	16.7	0	0	---	0.00	30.041 
06:35	19.9	19.9	19.9	88	16.9	0	0	---	0.00	30.041 
06:40	19.9	19.9	19.9	88	16.9	0	0	---	0.00	30.041 
06:45	20.0	20.0	20.0	88	17.0	0	0	---	0.00	30.045 
06:50	20.0	20.0	20.0	88	17.0	0	0	---	0.00	30.045 
06:55	20.2	20.2	20.2	88	17.2	0	0	---	0.00	30.045 
07:00	20.5	20.5	20.5	89	17.8	0	0	---	0.00	30.032 
07:05	20.8	20.8	20.8	89	18.1	0	2	0	0.00	30.032 
07:10	21.4	21.4	21.4	90	18.9	0	2	0	0.00	30.032 
07:15	22.9	22.9	22.9	90	20.4	0	3	0	0.00	30.028 
07:20	24.1	24.1	24.1	89	21.3	0	2	22	0.00	30.028 
07:25	24.8	24.8	24.8	87	21.5	1	4	22	0.00	30.028 
07:30	25.1	25.1	25.1	85	21.2	0	2	112	0.00	30.031 
07:35	25.3	25.3	25.3	84	21.2	1	3	112	0.00	30.031 
07:40	25.4	25.4	25.4	84	21.3	1	4	112	0.00	30.031 
07:45	25.4	25.4	25.4	84	21.3	0	2	112	0.00	30.045 
07:50	25.6	25.6	25.6	84	21.5	0	2	112	0.00	30.045 
07:55	25.6	25.6	25.6	84	21.5	0	1	112	0.00	30.045 
08:00	25.6	25.6	25.6	84	21.5	0	2	112	0.00	30.043 
08:05	25.7	25.7	25.7	84	21.5	1	3	112	0.00	30.043 
08:10	25.7	25.7	25.7	84	21.5	0	3	112	0.00	30.043 
08:15	25.7	25.7	25.7	84	21.5	1	2	112	0.00	30.048 
08:20	25.7	25.7	25.7	84	21.5	1	3	90	0.00	30.048 
08:25	25.7	25.7	25.7	85	21.8	1	4	90	0.00	30.048 
08:30	25.7	25.7	25.7	85	21.8	1	3	112	0.00	30.062 
08:35	25.8	25.8	25.8	85	21.9	1	3	112	0.00	30.062 
08:40	26.0	26.0	26.0	85	22.1	2	4	90	0.00	30.062 
08:45	26.3	26.3	26.3	85	22.4	3	7	90	0.00	30.059 
08:50	26.6	26.6	26.6	84	22.4	2	5	90	0.00	30.059 
08:55	26.6	26.6	26.6	84	22.4	2	6	112	0.00	30.059 
09:00	26.6	26.6	26.6	84	22.4	1	4	112	0.00	30.062 
09:05	26.7	26.7	26.7	84	22.5	1	4	112	0.00	30.062 
09:10	26.7	26.7	26.7	84	22.5	2	5	112	0.00	30.062 
09:15	26.7	26.7	26.7	84	22.5	3	6	112	0.00	30.073 
09:20	26.9	26.9	26.9	84	22.7	2	9	90	0.00	30.073 
09:25	26.9	26.9	26.9	84	22.7	3	9	112	0.00	30.073 
09:30	27.0	27.0	27.0	84	22.8	3	6	112	0.00	30.067 
09:35	27.2	27.2	27.2	84	23.0	3	7	112	0.00	30.067 
09:40	27.3	27.3	27.3	84	23.1	2	5	90	0.00	30.067 
09:45	27.5	27.5	27.5	84	23.3	3	5	90	0.00	30.079 
09:50	27.5	27.5	27.5	84	23.3	3	7	90	0.00	30.079 
09:55	27.5	21.8	27.5	83	23.0	5	12	112	0.00	30.079 
10:00	27.6	27.6	27.6	83	23.1	3	7	112	0.00	30.067 
10:05	27.8	23.2	27.8	82	23.0	4	11	112	0.00	30.067 
10:10	27.9	23.3	27.9	82	23.1	4	10	90	0.00	30.067 
10:15	28.2	23.7	28.2	82	23.4	4	10	112	0.00	30.064 
10:20	28.4	22.8	28.4	81	23.3	5	13	90	0.00	30.064 
10:25	28.5	24.0	28.5	81	23.4	4	10	112	0.00	30.064 
10:30	28.7	23.2	28.7	81	23.6	5	11	90	0.00	30.065 
10:35	28.8	23.3	28.8	81	23.7	5	11	112	0.00	30.065 
10:40	29.0	24.6	29.0	82	24.2	4	10	112	0.00	30.065 
10:45	29.1	24.7	29.1	82	24.3	4	10	112	0.00	30.077 
10:50	29.3	23.9	29.3	82	24.5	5	11	112	0.00	30.077 
10:55	29.4	25.1	29.4	82	24.6	4	7	90	0.00	30.077 
11:00	29.5	29.5	29.5	82	24.7	3	10	112	0.00	30.093 
11:05	29.7	29.7	29.7	83	25.2	3	7	112	0.00	30.093 
11:10	29.8	23.6	29.8	82	25.0	6	11	112	0.00	30.093 
11:15	30.0	25.8	30.0	82	25.2	4	10	90	0.00	30.095 
11:20	30.1	24.8	30.1	82	25.3	5	12	90	0.00	30.095 
11:25	30.1	25.9	30.1	82	25.3	4	7	112	0.00	30.095 
11:30	30.1	25.9	30.1	83	25.6	4	10	90	0.00	30.075 
11:35	30.3	25.1	30.3	83	25.8	5	12	90	0.00	30.075 
11:40	30.3	26.1	30.3	83	25.8	4	7	112	0.00	30.075 
11:45	30.4	26.2	30.4	83	25.9	4	9	112	0.00	30.076 
11:50	30.4	25.2	30.4	84	26.2	5	11	112	0.00	30.076 
11:55	30.6	26.5	30.6	84	26.4	4	10	112	0.00	30.076 
12:00	30.7	30.7	30.7	84	26.4	3	7	90	0.00	30.076 
12:05	30.9	26.8	30.9	84	26.6	4	10	112	0.00	30.076 
12:10	30.9	26.8	30.9	84	26.6	4	9	112	0.00	30.076 
12:15	31.0	31.0	31.0	84	26.7	3	10	112	0.00	30.073 
12:20	30.9	25.8	30.9	84	26.6	5	11	90	0.00	30.073 
12:25	30.9	25.8	30.9	85	26.9	5	11	90	0.00	30.073 
12:30	30.7	24.7	30.7	84	26.4	6	11	90	0.00	30.048 
12:35	30.7	24.7	30.7	84	26.4	6	13	90	0.00	30.048 
12:40	30.6	25.4	30.6	84	26.4	5	13	90	0.00	30.048 
12:45	30.4	24.3	30.4	85	26.4	6	13	90	0.00	30.035 
12:50	30.4	25.2	30.4	85	26.4	5	14	112	0.00	30.035 
12:55	30.3	24.2	30.3	84	26.1	6	12	112	0.00	30.035 
13:00	30.3	25.1	30.3	84	26.1	5	10	112	0.00	30.029 
13:05	30.3	25.1	30.3	85	26.3	5	11	90	0.00	30.029 
13:10	30.1	24.8	30.1	85	26.1	5	10	112	0.00	30.029 
13:15	30.1	24.8	30.1	85	26.1	5	14	112	0.00	30.029 
13:20	30.1	24.8	30.1	86	26.4	5	11	90	0.00	30.029 
13:25	30.3	25.1	30.3	85	26.3	5	11	90	0.00	30.029 
13:30	30.4	25.2	30.4	85	26.4	5	13	90	0.00	30.017 
13:35	30.6	26.5	30.6	86	26.9	4	10	90	0.00	30.017 
13:40	30.7	25.5	30.7	85	26.7	5	8	112	0.00	30.017 
13:45	30.9	26.8	30.9	84	26.6	4	8	90	0.00	30.012 
13:50	31.0	25.9	31.0	84	26.7	5	10	112	0.00	30.012 
13:55	31.2	31.2	31.2	84	26.9	3	6	90	0.00	30.012 
14:00	31.3	27.3	31.3	84	27.0	4	9	90	0.00	30.012 
14:05	31.3	27.3	31.3	84	27.0	4	9	112	0.00	30.012 
14:10	31.5	27.5	31.5	83	26.9	4	10	90	0.00	30.012 
14:15	31.5	26.5	31.5	82	26.7	5	13	90	0.00	30.017 
14:20	31.6	26.6	31.6	81	26.5	5	11	112	0.00	30.017 
14:25	31.8	26.8	31.8	80	26.3	5	10	90	0.00	30.017 
14:30	31.9	28.0	31.9	80	26.4	4	9	90	0.00	30.011 
14:35	32.1	27.2	32.1	79	26.3	5	12	90	0.00	30.011 
14:40	32.1	28.2	32.1	79	26.3	4	11	112	0.00	30.011 
14:45	32.2	28.3	32.2	80	26.7	4	8	90	0.00	30.011 
14:50	32.1	27.2	32.1	80	26.6	5	13	112	0.00	30.011 
14:55	32.1	28.2	32.1	81	26.9	4	11	90	0.00	30.011 
15:00	31.9	27.0	31.9	81	26.7	5	11	112	0.00	30.017 
15:05	31.8	26.0	31.8	81	26.6	6	15	90	0.00	30.017 
15:10	31.6	27.6	31.6	82	26.7	4	9	112	0.00	30.017 
15:15	31.6	26.6	31.6	82	26.7	5	11	112	0.00	30.028 
15:20	31.5	26.5	31.5	82	26.7	5	10	112	0.00	30.028 
15:25	31.5	27.5	31.5	83	26.9	4	11	112	0.00	30.028 
15:30	31.5	26.5	31.5	82	26.7	5	13	112	0.00	30.033 
15:35	31.6	31.6	31.6	82	26.7	3	9	112	0.00	30.033 
15:40	31.5	27.5	31.5	82	26.7	4	10	112	0.00	30.033 
15:45	31.2	25.3	31.2	81	26.1	6	13	112	0.00	30.032 
15:50	30.9	24.9	30.9	81	25.8	6	16	90	0.00	30.032 
15:55	30.7	23.9	30.7	81	25.6	7	12	112	0.00	30.032 
16:00	30.6	25.4	30.6	81	25.5	5	13	112	0.00	30.033 
16:05	30.6	25.4	30.6	81	25.5	5	11	112	0.00	30.033 
16:10	30.6	25.4	30.6	81	25.5	5	12	112	0.00	30.033 
16:15	30.6	25.4	30.6	80	25.2	5	12	112	0.00	30.049 
16:20	30.7	26.6	30.7	80	25.3	4	9	112	0.00	30.049 
16:25	30.7	24.7	30.7	79	25.0	6	11	112	0.00	30.049 
16:30	30.6	23.8	30.6	79	24.9	7	16	112	0.00	30.043 
16:35	30.4	23.6	30.4	79	24.7	7	17	112	0.00	30.043 
16:40	30.4	23.6	30.4	79	24.7	7	14	112	0.00	30.043 
16:45	30.3	24.2	30.3	79	24.6	6	14	90	0.00	30.038 
16:50	30.3	25.1	30.3	79	24.6	5	16	112	0.00	30.038 
16:55	30.1	24.0	30.1	79	24.4	6	13	112	0.00	30.038 
17:00	30.1	24.0	30.1	79	24.4	6	14	90	0.00	30.049 
17:05	30.3	30.3	30.3	80	24.9	3	6	112	0.00	30.049 
17:10	30.1	24.8	30.1	79	24.4	5	12	90	0.00	30.049 
17:15	30.0	23.8	30.0	79	24.3	6	13	112	0.00	30.054 
17:20	30.0	24.7	30.0	79	24.3	5	12	112	0.00	30.054 
17:25	29.8	23.6	29.8	79	24.1	6	13	90	0.00	30.054 
17:30	29.7	23.5	29.7	79	24.0	6	13	112	0.00	30.045 
17:35	29.7	23.5	29.7	79	24.0	6	16	112	0.00	30.045 
17:40	29.5	25.2	29.5	79	23.8	4	11	112	0.00	30.045 
17:45	29.5	29.5	29.5	80	24.1	3	7	90	0.00	30.053 
17:50	29.5	25.2	29.5	80	24.1	4	9	90	0.00	30.053 
17:55	29.4	25.1	29.4	80	24.0	4	12	90	0.00	30.053 
18:00	29.4	25.1	29.4	80	24.0	4	12	112	0.00	30.050 
18:05	29.4	29.4	29.4	80	24.0	3	7	112	0.00	30.050 
18:10	29.3	25.0	29.3	80	23.9	4	11	112	0.00	30.050 
18:15	29.3	23.9	29.3	81	24.2	5	12	90	0.00	30.051 
18:20	29.3	25.0	29.3	81	24.2	4	11	112	0.00	30.051 
18:25	29.1	23.7	29.1	81	24.0	5	10	112	0.00	30.051 
18:30	29.1	24.7	29.1	81	24.0	4	12	112	0.00	30.054 
18:35	29.1	23.7	29.1	81	24.0	5	11	112	0.00	30.054 
18:40	29.1	22.8	29.1	82	24.3	6	13	90	0.00	30.054 
18:45	29.1	22.8	29.1	82	24.3	6	15	112	0.00	30.046 
18:50	29.0	21.9	29.0	82	24.2	7	13	112	0.00	30.046 
18:55	29.0	24.6	29.0	83	24.5	4	10	112	0.00	30.046 
19:00	29.0	21.9	29.0	83	24.5	7	17	112	0.00	30.043 
19:05	29.0	22.7	29.0	83	24.5	6	15	112	0.00	30.043 
19:10	29.0	22.7	29.0	83	24.5	6	14	112	0.00	30.043 
19:15	28.8	22.4	28.8	83	24.3	6	14	112	0.00	30.041 
19:20	28.8	22.4	28.8	83	24.3	6	13	112	0.00	30.041 
19:25	28.8	22.4	28.8	83	24.3	6	14	90	0.00	30.041 
19:30	28.8	22.4	28.8	83	24.3	6	14	112	0.00	30.045 
19:35	28.8	21.6	28.8	83	24.3	7	16	112	0.00	30.045 
19:40	28.8	22.4	28.8	83	24.3	6	12	112	0.00	30.045 
19:45	28.8	23.3	28.8	83	24.3	5	14	112	0.00	30.047 
19:50	28.8	24.4	28.8	83	24.3	4	12	112	0.00	30.047 
19:55	28.8	22.4	28.8	83	24.3	6	14	90	0.00	30.047 
20:00	28.8	23.3	28.8	83	24.3	5	13	112	0.00	30.052 
20:05	28.7	23.2	28.7	83	24.2	5	12	112	0.00	30.052 
20:10	28.7	22.3	28.7	82	23.9	6	12	112	0.00	30.052 
20:15	28.7	20.8	28.7	82	23.9	8	15	90	0.00	30.053 
20:20	28.8	22.4	28.8	81	23.7	6	13	112	0.00	30.053 
20:25	28.7	22.3	28.7	81	23.6	6	13	112	0.00	30.053 
20:30	28.7	22.3	28.7	81	23.6	6	13	112	0.00	30.048 
20:35	28.7	22.3	28.7	81	23.6	6	12	112	0.00	30.048 
20:40	28.7	22.3	28.7	81	23.6	6	13	112	0.00	30.048 
20:45	28.5	20.6	28.5	81	23.4	8	19	90	0.00	30.049 
20:50	28.4	21.2	28.4	81	23.3	7	16	112	0.00	30.049 
20:55	28.2	21.7	28.2	81	23.1	6	15	90	0.00	30.049 
21:00	28.1	23.6	28.1	81	23.0	4	10	90	0.00	30.059 
21:05	27.9	22.3	27.9	81	22.8	5	11	112	0.00	30.059 
21:10	27.8	22.1	27.8	81	22.7	5	13	90	0.00	30.059 
21:15	27.6	21.0	27.6	81	22.5	6	12	112	0.00	30.054 
21:20	27.6	21.0	27.6	81	22.5	6	14	112	0.00	30.054 
21:25	27.5	20.9	27.5	81	22.4	6	13	112	0.00	30.054 
21:30	27.5	21.8	27.5	81	22.4	5	12	112	0.00	30.060 
21:35	27.3	21.6	27.3	81	22.3	5	11	112	0.00	30.060 
21:40	27.2	21.4	27.2	81	22.2	5	11	112	0.00	30.060 
21:45	27.2	20.5	27.2	80	21.9	6	12	90	0.00	30.065 
21:50	27.0	21.2	27.0	80	21.7	5	9	90	0.00	30.065 
21:55	27.0	21.2	27.0	80	21.7	5	14	112	0.00	30.065 
22:00	27.0	22.3	27.0	80	21.7	4	9	112	0.00	30.066 
22:05	26.9	20.2	26.9	81	21.9	6	14	90	0.00	30.066 
22:10	26.9	19.4	26.9	80	21.6	7	13	112	0.00	30.066 
22:15	26.9	20.2	26.9	80	21.6	6	13	112	0.00	30.064 
22:20	26.9	19.4	26.9	79	21.3	7	20	112	0.00	30.064 
22:25	26.7	19.9	26.7	79	21.1	6	16	112	0.00	30.064 
22:30	26.7	19.9	26.7	79	21.1	6	13	112	0.00	30.062 
22:35	26.6	19.8	26.6	79	21.0	6	12	90	0.00	30.062 
22:40	26.6	19.8	26.6	80	21.3	6	12	90	0.00	30.062 
22:45	26.4	18.7	26.4	80	21.1	7	12	112	0.00	30.065 
22:50	26.3	19.4	26.3	80	21.0	6	11	112	0.00	30.065 
22:55	26.1	18.4	26.1	80	20.8	7	17	90	0.00	30.065 
23:00	26.1	20.1	26.1	80	20.8	5	13	112	0.00	30.063 
23:05	26.0	19.1	26.0	80	20.7	6	16	112	0.00	30.063 
23:10	26.0	18.3	26.0	84	21.8	7	15	112	0.00	30.063 
23:15	26.0	19.1	26.0	80	20.7	6	15	112	0.00	30.067 
23:20	26.0	18.3	26.0	80	20.7	7	14	112	0.00	30.067 
23:25	25.8	18.0	25.8	80	20.5	7	17	90	0.00	30.067 
23:30	25.8	18.8	25.8	80	20.5	6	15	112	0.00	30.071 
23:35	25.8	18.8	25.8	80	20.5	6	11	112	0.00	30.071 
23:40	25.8	18.8	25.8	80	20.5	6	13	90	0.00	30.071 
23:45	25.8	19.8	25.8	80	20.5	5	12	112	0.00	30.078 
23:50	25.8	19.8	25.8	80	20.5	5	12	112	0.00	30.078 
23:55	25.8	18.0	25.8	80	20.5	7	14	90	0.00	30.078 

CoCoRaHS
IN-AL-39
A2 Web Hosting
Creative Commons License
GoDaddy
search engine by freefind advanced

loaded 2018-11-19 11:20:17 • last modified 2010-11-18 10:43:29
Privacy PolicyDisclaimer
• wx.awcolley.com is powered by PmWiki v.2002016 •
• all content (unless otherwise noted) © 2018 A W Colley